Temp: 4.4°C   Baro: 1017.3mb
  Wind: 0.0mph   Dir: NNW (342°)
  Rain: 0.0mm (0.0mm/hr)
  Solar: 0W/m2  Hum: 83%

Historic data

Bath Spa Weather Station Historical Data
Daily Summary for October 8, 2021 Units:  Metric    English   Both
Daily Weekly Monthly Yearly Custom
  High: Low: Average:
Temperature: 15.6 °C 13.2 °C 14.5 °C
Dew Point: 14.3 °C 12.4 °C 13.6 °C
Humidity: 94% 88.4% 91%
Wind Speed: 6km/h 0km/h 1.9km/h
Wind Gust: 12.9km/h - -
Wind- - WSW
Pressure: 1030.4 hPa 1028.3 hPa -
Precipitation: 0 mm    
Historical Graphs
 
 
Tabular Data for October 8, 2021
Time Temperature Dew Point Pressure Wind Wind Speed Wind Gust Humidity Rainfall Rate (Hourly) solar
00:04 13.4 °C 12.7 °C 1028.3 hPa Calm     92% 0 mm 0 W/m2
00:09 13.4 °C 12.6 °C 1028.3 hPa Calm     92% 0 mm 0 W/m2
00:14 13.3 °C 12.5 °C 1028.3 hPa Calm     92% 0 mm 0 W/m2
00:19 13.2 °C 12.4 °C 1028.3 hPa Calm     92% 0 mm 0 W/m2
00:24 13.2 °C 12.4 °C 1028.3 hPa Calm     92% 0 mm 0 W/m2
00:29 13.2 °C 12.4 °C 1028.3 hPa Calm     92% 0 mm 0 W/m2
00:34 13.4 °C 12.6 °C 1028.3 hPa Calm     92% 0 mm 0 W/m2
00:39 13.4 °C 12.6 °C 1028.3 hPa Calm     92% 0 mm 0 W/m2
00:44 13.6 °C 12.8 °C 1028.3 hPa Calm     92.4% 0 mm 0 W/m2
00:49 13.7 °C 13.1 °C 1028.7 hPa Calm     93% 0 mm 0 W/m2
00:54 13.8 °C 13.2 °C 1028.7 hPa WSW 3.2 km/h 6.4 km/h 93% 0 mm 0 W/m2
00:59 13.8 °C 13.2 °C 1028.3 hPa WSW 0.3 km/h 1.6 km/h 93% 0 mm 0 W/m2
01:04 13.8 °C 13.3 °C 1028.7 hPa WSW 0.3 km/h 6.4 km/h 93% 0 mm 0 W/m2
01:09 13.9 °C 13.3 °C 1028.3 hPa WSW 1 km/h 3.2 km/h 93% 0 mm 0 W/m2
01:14 13.9 °C 13.3 °C 1028.3 hPa WSW 1.4 km/h 4.8 km/h 93% 0 mm 0 W/m2
01:19 13.9 °C 13.3 °C 1028.7 hPa WSW 2.9 km/h 4.8 km/h 93% 0 mm 0 W/m2
01:24 14 °C 13.4 °C 1028.7 hPa WSW 1.1 km/h 4.8 km/h 93% 0 mm 0 W/m2
01:29 14.1 °C 13.4 °C 1028.7 hPa WSW 2.7 km/h 6.4 km/h 93% 0 mm 0 W/m2
01:34 14.1 °C 13.5 °C 1028.7 hPa WSW 1.6 km/h 8 km/h 93% 0 mm 0 W/m2
01:39 14.2 °C 13.6 °C 1028.7 hPa WSW 4.7 km/h 8 km/h 93% 0 mm 0 W/m2
01:44 14.2 °C 13.6 °C 1028.7 hPa WSW 5.8 km/h 9.7 km/h 93% 0 mm 0 W/m2
01:49 14.3 °C 13.7 °C 1028.7 hPa WSW 5.1 km/h 11.3 km/h 93% 0 mm 0 W/m2
01:54 14.3 °C 13.7 °C 1028.7 hPa WSW 5.5 km/h 9.7 km/h 93% 0 mm 0 W/m2
01:59 14.3 °C 13.7 °C 1028.7 hPa WSW 3.5 km/h 9.7 km/h 93% 0 mm 0 W/m2
02:04 14.3 °C 13.7 °C 1028.7 hPa WSW 4.5 km/h 9.7 km/h 93% 0 mm 0 W/m2
02:09 14.3 °C 13.7 °C 1028.7 hPa WSW 4.8 km/h 9.7 km/h 93% 0 mm 0 W/m2
02:14 14.3 °C 13.7 °C 1028.7 hPa WSW 2.1 km/h 6.4 km/h 93% 0 mm 0 W/m2
02:19 14.3 °C 13.7 °C 1028.7 hPa WSW 3.4 km/h 6.4 km/h 93% 0 mm 0 W/m2
02:24 14.3 °C 13.7 °C 1028.7 hPa WSW 3.1 km/h 8 km/h 93% 0 mm 0 W/m2
02:29 14.3 °C 13.7 °C 1029 hPa WSW 2.7 km/h 8 km/h 93% 0 mm 0 W/m2
02:34 14.3 °C 13.7 °C 1028.7 hPa WSW 3.9 km/h 6.4 km/h 93% 0 mm 0 W/m2
02:39 14.3 °C 13.7 °C 1028.7 hPa WSW 4 km/h 8 km/h 93% 0 mm 0 W/m2
02:44 14.3 °C 13.7 °C 1028.7 hPa WSW 5.3 km/h 11.3 km/h 93% 0 mm 0 W/m2
02:49 14.3 °C 13.7 °C 1028.7 hPa WSW 5.1 km/h 12.9 km/h 93% 0 mm 0 W/m2
02:54 14.2 °C 13.6 °C 1028.7 hPa WSW 5.8 km/h 12.9 km/h 93% 0 mm 0 W/m2
02:59 14.2 °C 13.7 °C 1028.7 hPa WSW 4.5 km/h 11.3 km/h 93% 0 mm 0 W/m2
03:04 14.2 °C 13.6 °C 1028.7 hPa WSW 2.7 km/h 8 km/h 93% 0 mm 0 W/m2
03:09 14.2 °C 13.6 °C 1028.7 hPa WSW 5.3 km/h 9.7 km/h 92.8% 0 mm 0 W/m2
03:14 14.2 °C 13.6 °C 1029 hPa WSW 4 km/h 9.7 km/h 93% 0 mm 0 W/m2
03:19 14.2 °C 13.6 °C 1028.7 hPa WSW 5 km/h 8 km/h 93% 0 mm 0 W/m2
03:24 14.2 °C 13.6 °C 1028.7 hPa WSW 2.9 km/h 8 km/h 93% 0 mm 0 W/m2
03:29 14.2 °C 13.6 °C 1028.7 hPa WSW 4.3 km/h 9.7 km/h 93% 0 mm 0 W/m2
03:34 14.2 °C 13.6 °C 1028.7 hPa WSW 0.6 km/h 6.4 km/h 93% 0 mm 0 W/m2
03:39 14.2 °C 13.6 °C 1028.7 hPa WSW 2.6 km/h 4.8 km/h 93% 0 mm 0 W/m2
03:44 14.2 °C 13.6 °C 1028.7 hPa WSW 2.1 km/h 4.8 km/h 93% 0 mm 0 W/m2
03:49 14.2 °C 13.6 °C 1028.7 hPa WSW 4.5 km/h 9.7 km/h 93% 0 mm 0 W/m2
03:54 14.2 °C 13.6 °C 1028.7 hPa WSW 3.7 km/h 6.4 km/h 93% 0 mm 0 W/m2
03:59 14.1 °C 13.5 °C 1028.7 hPa WSW 1.9 km/h 6.4 km/h 93% 0 mm 0 W/m2
04:04 14.1 °C 13.5 °C 1028.7 hPa WSW 1.9 km/h 6.4 km/h 93% 0 mm 0 W/m2
04:09 14.1 °C 13.5 °C 1028.7 hPa WSW 4 km/h 8 km/h 93% 0 mm 0 W/m2
04:14 14.1 °C 13.5 °C 1029 hPa WSW 0.6 km/h 6.4 km/h 93% 0 mm 0 W/m2
04:19 14.1 °C 13.5 °C 1029 hPa WSW 2.1 km/h 6.4 km/h 93% 0 mm 0 W/m2
04:24 14.1 °C 13.5 °C 1029 hPa WSW 0.6 km/h 4.8 km/h 93% 0 mm 0 W/m2
04:29 14.1 °C 13.5 °C 1029 hPa WSW 0.6 km/h 3.2 km/h 93% 0 mm 0 W/m2
04:34 14.1 °C 13.5 °C 1029 hPa WSW 0.3 km/h 3.2 km/h 93% 0 mm 0 W/m2
04:39 14.1 °C 13.5 °C 1029 hPa Calm     93% 0 mm 0 W/m2
04:44 14.1 °C 13.5 °C 1029 hPa Calm     93% 0 mm 0 W/m2
04:49 14.1 °C 13.5 °C 1029 hPa WSW 0.3 km/h 1.6 km/h 93% 0 mm 0 W/m2
04:54 14.1 °C 13.5 °C 1029 hPa WSW 0.6 km/h 3.2 km/h 93% 0 mm 0 W/m2
04:59 14.1 °C 13.5 °C 1029 hPa WSW 1.6 km/h 6.4 km/h 93% 0 mm 0 W/m2
05:04 14.1 °C 13.5 °C 1029 hPa WSW 1.6 km/h 6.4 km/h 93% 0 mm 0 W/m2
05:09 14.1 °C 13.5 °C 1029 hPa WSW 0.3 km/h 3.2 km/h 93% 0 mm 0 W/m2
05:14 14.1 °C 13.5 °C 1029 hPa WSW 0.6 km/h 3.2 km/h 93% 0 mm 0 W/m2
05:19 14.1 °C 13.5 °C 1029 hPa WSW 1.8 km/h 4.8 km/h 93% 0 mm 0 W/m2
05:24 14.2 °C 13.6 °C 1029 hPa WSW 2.1 km/h 6.4 km/h 93% 0 mm 0 W/m2
05:29 14.2 °C 13.6 °C 1029 hPa WSW 1.9 km/h 4.8 km/h 93% 0 mm 0 W/m2
05:34 14.2 °C 13.6 °C 1029.3 hPa WSW 1.3 km/h 4.8 km/h 93% 0 mm 0 W/m2
05:39 14.2 °C 13.6 °C 1029 hPa WSW 0.3 km/h 1.6 km/h 93% 0 mm 0 W/m2
05:44 14.2 °C 13.6 °C 1029 hPa WSW 1.4 km/h 4.8 km/h 93% 0 mm 0 W/m2
05:49 14.2 °C 13.6 °C 1029 hPa WSW 1.6 km/h 3.2 km/h 93% 0 mm 0 W/m2
05:54 14.2 °C 13.6 °C 1029 hPa WSW 1.8 km/h 4.8 km/h 93% 0 mm 0 W/m2
05:59 14.2 °C 13.6 °C 1029 hPa WSW 3.9 km/h 8 km/h 93% 0 mm 0 W/m2
06:04 14.2 °C 13.6 °C 1029.3 hPa WSW 1.3 km/h 6.4 km/h 93% 0 mm 0 W/m2
06:09 14.2 °C 13.6 °C 1029 hPa WSW 2.3 km/h 3.2 km/h 93% 0 mm 0 W/m2
06:14 14.2 °C 13.6 °C 1029.3 hPa WSW 2.7 km/h 4.8 km/h 93% 0 mm 0 W/m2
06:19 14.2 °C 13.6 °C 1029.3 hPa WSW 4.7 km/h 8 km/h 93% 0 mm 0 W/m2
06:24 14.1 °C 13.5 °C 1029.3 hPa WSW 3.7 km/h 8 km/h 93% 0 mm 0 W/m2
06:29 14.1 °C 13.5 °C 1029.3 hPa WSW 1.9 km/h 4.8 km/h 93% 0 mm 0 W/m2
06:34 14.1 °C 13.5 °C 1029.3 hPa WSW 0.8 km/h 3.2 km/h 93% 0 mm 0 W/m2
06:39 14.1 °C 13.5 °C 1029.3 hPa WSW 0.3 km/h 3.2 km/h 93% 0 mm 0 W/m2
06:44 14.1 °C 13.5 °C 1029.3 hPa Calm   1.6 km/h 93% 0 mm 0 W/m2
06:49 14.1 °C 13.5 °C 1029.3 hPa Calm   1.6 km/h 93% 0 mm 0 W/m2
06:54 14.1 °C 13.5 °C 1029.3 hPa WSW 0.3 km/h 1.6 km/h 93% 0 mm 0 W/m2
06:59 14.1 °C 13.4 °C 1029.3 hPa Calm   1.6 km/h 93% 0 mm 0 W/m2
07:04 14.1 °C 13.4 °C 1029.3 hPa WSW 1 km/h 4.8 km/h 93% 0 mm 0 W/m2
07:09 14.1 °C 13.4 °C 1029.3 hPa WSW 3.1 km/h 6.4 km/h 93% 0 mm 0 W/m2
07:14 13.9 °C 13.3 °C 1029.3 hPa WSW 3.9 km/h 6.4 km/h 93% 0 mm 0 W/m2
07:19 13.9 °C 13.3 °C 1029.3 hPa WSW 1.8 km/h 4.8 km/h 93% 0 mm 0 W/m2
07:24 13.9 °C 13.3 °C 1029.3 hPa WSW 1.9 km/h 3.2 km/h 93% 0 mm 0 W/m2
07:29 13.9 °C 13.3 °C 1029.3 hPa WSW 0.8 km/h 4.8 km/h 93% 0 mm 0 W/m2
07:34 13.8 °C 13.2 °C 1029.3 hPa WSW 1 km/h 6.4 km/h 93% 0 mm 9 W/m2
07:39 13.8 °C 13.2 °C 1029.3 hPa Calm   3.2 km/h 93% 0 mm 14 W/m2
07:44 13.8 °C 13.2 °C 1029.3 hPa Calm   1.6 km/h 93% 0 mm 18 W/m2
07:49 13.8 °C 13.2 °C 1029.7 hPa WSW 1.3 km/h 6.4 km/h 93% 0 mm 35 W/m2
07:54 13.8 °C 13.2 °C 1029.7 hPa WSW 1.1 km/h 6.4 km/h 93% 0 mm 47 W/m2
07:59 13.7 °C 13.1 °C 1029.7 hPa WSW 0.6 km/h 3.2 km/h 93% 0 mm 53 W/m2
08:04 13.8 °C 13.2 °C 1029.7 hPa WSW 0.3 km/h 4.8 km/h 93.6% 0 mm 49 W/m2
08:09 13.7 °C 13.2 °C 1029.7 hPa Calm   4.8 km/h 93.2% 0 mm 47 W/m2
08:14 13.7 °C 13.1 °C 1029.7 hPa WSW 0.6 km/h 3.2 km/h 93% 0 mm 44 W/m2
08:19 13.7 °C 13.1 °C 1029.7 hPa WSW 1 km/h 3.2 km/h 93.2% 0 mm 51 W/m2
08:24 13.7 °C 13.2 °C 1029.7 hPa WSW 1.3 km/h 3.2 km/h 93.8% 0 mm 54 W/m2
08:29 13.7 °C 13.2 °C 1030 hPa WSW 0.6 km/h 3.2 km/h 94% 0 mm 62 W/m2
08:34 13.7 °C 13.2 °C 1030 hPa WSW 0.3 km/h 3.2 km/h 94% 0 mm 70 W/m2
08:39 13.7 °C 13.2 °C 1030 hPa WSW 0.6 km/h 3.2 km/h 94% 0 mm 79 W/m2
08:44 13.8 °C 13.3 °C 1030 hPa WSW 2.4 km/h 4.8 km/h 94% 0 mm 69 W/m2
08:49 13.7 °C 13.2 °C 1030 hPa WSW 0.6 km/h 3.2 km/h 94% 0 mm 76 W/m2
08:54 13.8 °C 13.3 °C 1030 hPa WSW 1.3 km/h 6.4 km/h 94% 0 mm 114 W/m2
08:59 13.8 °C 13.3 °C 1030 hPa WSW 2.9 km/h 8 km/h 94% 0 mm 137 W/m2
09:04 13.8 °C 13.3 °C 1030 hPa West 3.4 km/h 9.7 km/h 94% 0 mm 139 W/m2
09:09 13.8 °C 13.3 °C 1030 hPa West 4.8 km/h 8 km/h 94% 0 mm 105 W/m2
09:14 13.7 °C 13.1 °C 1030 hPa West 5.3 km/h 11.3 km/h 93.2% 0 mm 104 W/m2
09:19 13.8 °C 13.3 °C 1030 hPa West 4.5 km/h 9.7 km/h 94% 0 mm 107 W/m2
09:24 13.8 °C 13.3 °C 1030 hPa West 3.4 km/h 8 km/h 93.2% 0 mm 111 W/m2
09:29 13.9 °C 13.3 °C 1030 hPa Calm   6.4 km/h 93% 0 mm 109 W/m2
09:34 14.1 °C 13.5 °C 1030 hPa West 3.9 km/h 8 km/h 93% 0 mm 105 W/m2
09:39 14.1 °C 13.4 °C 1030.4 hPa West 5.5 km/h 9.7 km/h 93% 0 mm 105 W/m2
09:44 14.1 °C 13.5 °C 1030.4 hPa West 2.6 km/h 6.4 km/h 93% 0 mm 91 W/m2
09:49 14.1 °C 13.5 °C 1030.4 hPa West 1.4 km/h 4.8 km/h 93% 0 mm 74 W/m2
09:54 14.1 °C 13.5 °C 1030.4 hPa West 1.9 km/h 4.8 km/h 93% 0 mm 65 W/m2
09:59 14.2 °C 13.6 °C 1030.4 hPa West 2.7 km/h 6.4 km/h 93% 0 mm 70 W/m2
10:04 14.1 °C 13.5 °C 1030.4 hPa West 3.2 km/h 6.4 km/h 93% 0 mm 74 W/m2
10:09 14.1 °C 13.5 °C 1030.4 hPa West 3.2 km/h 9.7 km/h 93% 0 mm 107 W/m2
10:14 14.1 °C 13.5 °C 1030.4 hPa West 2.1 km/h 6.4 km/h 93% 0 mm 142 W/m2
10:19 14.1 °C 13.4 °C 1030.4 hPa West 4.2 km/h 6.4 km/h 93% 0 mm 190 W/m2
10:24 14 °C 13.4 °C 1030.4 hPa West 1.9 km/h 6.4 km/h 93% 0 mm 178 W/m2
10:29 14.1 °C 13.5 °C 1030.4 hPa West 4 km/h 8 km/h 93% 0 mm 127 W/m2
10:34 14.1 °C 13.3 °C 1030.4 hPa West 5.6 km/h 8 km/h 92.3% 0 mm 118 W/m2
10:39 14.2 °C 13.4 °C 1030.4 hPa West 2.4 km/h 8 km/h 92% 0 mm 163 W/m2
10:44 14.3 °C 13.5 °C 1030.4 hPa West 1.9 km/h 4.8 km/h 92% 0 mm 179 W/m2
10:49 14.3 °C 13.5 °C 1030.4 hPa West 2.9 km/h 6.4 km/h 92% 0 mm 162 W/m2
10:54 14.3 °C 13.6 °C 1030.4 hPa West 3.9 km/h 6.4 km/h 92% 0 mm 162 W/m2
10:59 14.4 °C 13.6 °C 1030.4 hPa West 4.3 km/h 8 km/h 91.8% 0 mm 195 W/m2
11:04 14.3 °C 13.3 °C 1030.4 hPa West 4.5 km/h 8 km/h 91% 0 mm 192 W/m2
11:09 14.3 °C 13.3 °C 1030.4 hPa West 4 km/h 6.4 km/h 91% 0 mm 171 W/m2
11:14 14.4 °C 13.4 °C 1030.4 hPa West 0.6 km/h 4.8 km/h 91% 0 mm 153 W/m2
11:19 14.4 °C 13.4 °C 1030.4 hPa West 2.3 km/h 6.4 km/h 91% 0 mm 146 W/m2
11:24 14.5 °C 13.5 °C 1030.4 hPa West 1.1 km/h 4.8 km/h 91% 0 mm 139 W/m2
11:29 14.7 °C 13.7 °C 1030.4 hPa West 1.9 km/h 6.4 km/h 91% 0 mm 141 W/m2
11:34 14.8 °C 13.8 °C 1030.4 hPa West 3.9 km/h 8 km/h 91% 0 mm 141 W/m2
11:39 14.7 °C 13.7 °C 1030.4 hPa West 2.4 km/h 6.4 km/h 91% 0 mm 151 W/m2
11:44 14.8 °C 13.7 °C 1030.4 hPa West 3.4 km/h 6.4 km/h 90.8% 0 mm 158 W/m2
11:49 14.7 °C 13.6 °C 1030.4 hPa West 3.2 km/h 8 km/h 90% 0 mm 156 W/m2
11:54 14.8 °C 13.7 °C 1030.4 hPa West 4.3 km/h 8 km/h 90% 0 mm 149 W/m2
11:59 14.7 °C 13.6 °C 1030.4 hPa West 3.5 km/h 8 km/h 90% 0 mm 151 W/m2
12:04 14.7 °C 13.6 °C 1030.4 hPa West 0.6 km/h 4.8 km/h 90% 0 mm 148 W/m2
12:09 14.7 °C 13.6 °C 1030.4 hPa West 1.3 km/h 8 km/h 90% 0 mm 144 W/m2
12:14 14.8 °C 13.7 °C 1030.4 hPa West 4.7 km/h 9.7 km/h 90% 0 mm 158 W/m2
12:19 14.7 °C 13.6 °C 1030.4 hPa West 5.3 km/h 9.7 km/h 90% 0 mm 179 W/m2
12:24 14.6 °C 13.5 °C 1030.4 hPa West 1 km/h 8 km/h 90% 0 mm 181 W/m2
12:29 14.7 °C 13.6 °C 1030.4 hPa West 2.1 km/h 6.4 km/h 90% 0 mm 174 W/m2
12:34 14.7 °C 13.6 °C 1030.4 hPa West 2.1 km/h 4.8 km/h 90% 0 mm 149 W/m2
12:39 14.8 °C 13.7 °C 1030.4 hPa West 2.6 km/h 6.4 km/h 90% 0 mm 141 W/m2
12:44 14.8 °C 13.7 °C 1030.4 hPa West 1.3 km/h 6.4 km/h 90% 0 mm 141 W/m2
12:49 14.9 °C 13.8 °C 1030.4 hPa West 0.3 km/h 3.2 km/h 90% 0 mm 139 W/m2
12:54 15.1 °C 13.9 °C 1030.4 hPa West 2.3 km/h 4.8 km/h 90% 0 mm 141 W/m2
12:59 15 °C 13.9 °C 1030.4 hPa West 2.6 km/h 6.4 km/h 90% 0 mm 134 W/m2
13:04 14.9 °C 13.8 °C 1030.4 hPa West 3.2 km/h 8 km/h 90% 0 mm 134 W/m2
13:09 14.9 °C 13.8 °C 1030.4 hPa West 4 km/h 9.7 km/h 90% 0 mm 130 W/m2
13:14 14.8 °C 13.6 °C 1030.4 hPa West 4.3 km/h 8 km/h 89.4% 0 mm 114 W/m2
13:19 14.8 °C 13.6 °C 1030.4 hPa West 0.3 km/h 4.8 km/h 89.6% 0 mm 107 W/m2
13:24 14.8 °C 13.7 °C 1030.4 hPa West 2.6 km/h 6.4 km/h 90% 0 mm 105 W/m2
13:29 14.9 °C 13.8 °C 1030 hPa West 0.6 km/h 4.8 km/h 90% 0 mm 111 W/m2
13:34 14.9 °C 13.8 °C 1030 hPa West 0.6 km/h 3.2 km/h 90% 0 mm 111 W/m2
13:39 15.1 °C 13.9 °C 1030 hPa West 0.3 km/h 3.2 km/h 90% 0 mm 109 W/m2
13:44 15.2 °C 14.1 °C 1030 hPa West 1.3 km/h 6.4 km/h 90% 0 mm 114 W/m2
13:49 15.1 °C 13.8 °C 1030 hPa West 2.6 km/h 8 km/h 89.4% 0 mm 114 W/m2
13:54 15.1 °C 13.8 °C 1030 hPa West 1.4 km/h 6.4 km/h 89% 0 mm 113 W/m2
13:59 15.2 °C 13.9 °C 1030 hPa Calm   3.2 km/h 89% 0 mm 100 W/m2
14:04 15.3 °C 14 °C 1030 hPa Calm     89.2% 0 mm 95 W/m2
14:09 15.2 °C 13.9 °C 1030 hPa West 1 km/h 3.2 km/h 89% 0 mm 95 W/m2
14:14 15.2 °C 13.9 °C 1030 hPa West 2.6 km/h 6.4 km/h 89% 0 mm 95 W/m2
14:19 15.2 °C 13.9 °C 1030 hPa West 1.4 km/h 8 km/h 89% 0 mm 97 W/m2
14:24 15.2 °C 13.9 °C 1030 hPa West 2.3 km/h 6.4 km/h 89% 0 mm 98 W/m2
14:29 15.2 °C 13.9 °C 1030 hPa West 2.6 km/h 4.8 km/h 89% 0 mm 97 W/m2
14:34 15.2 °C 13.8 °C 1030 hPa West 2.7 km/h 6.4 km/h 89% 0 mm 88 W/m2
14:39 15.2 °C 13.8 °C 1030 hPa West 4.2 km/h 6.4 km/h 89% 0 mm 79 W/m2
14:44 15.1 °C 13.8 °C 1030 hPa West 4.3 km/h 6.4 km/h 89% 0 mm 76 W/m2
14:49 15.1 °C 13.8 °C 1030 hPa West 3.4 km/h 6.4 km/h 89% 0 mm 76 W/m2
14:54 15 °C 13.7 °C 1030 hPa West 2.7 km/h 6.4 km/h 89% 0 mm 74 W/m2
14:59 15.1 °C 13.7 °C 1030 hPa West 1.4 km/h 6.4 km/h 89% 0 mm 70 W/m2
15:04 15.1 °C 13.8 °C 1030 hPa West 1.3 km/h 4.8 km/h 89% 0 mm 65 W/m2
15:09 15.2 °C 13.9 °C 1030 hPa West 1 km/h 4.8 km/h 89% 0 mm 63 W/m2
15:14 15.2 °C 13.9 °C 1030 hPa Calm   3.2 km/h 89% 0 mm 56 W/m2
15:19 15.2 °C 13.8 °C 1030 hPa Calm   1.6 km/h 89% 0 mm 53 W/m2
15:24 15.2 °C 13.9 °C 1030 hPa Calm   1.6 km/h 89% 0 mm 51 W/m2
15:29 15.3 °C 14.1 °C 1030 hPa West 2.3 km/h 6.4 km/h 89.4% 0 mm 54 W/m2
15:33 15.2 °C 13.9 °C 1029.7 hPa West 2.7 km/h 6.4 km/h 89% 0 mm 54 W/m2
15:39 15.2 °C 13.8 °C 1029.7 hPa West 0.6 km/h 6.4 km/h 89% 0 mm 53 W/m2
15:44 15.2 °C 13.9 °C 1029.7 hPa West 1.9 km/h 3.2 km/h 89% 0 mm 47 W/m2
15:49 15.2 °C 13.9 °C 1029.7 hPa West 3.4 km/h 6.4 km/h 89% 0 mm 46 W/m2
15:54 15.2 °C 13.9 °C 1029.7 hPa West 0.8 km/h 4.8 km/h 89% 0 mm 47 W/m2
15:59 15.2 °C 13.9 °C 1029.7 hPa West 1.9 km/h 4.8 km/h 89% 0 mm 47 W/m2
16:04 15.3 °C 14 °C 1029.7 hPa West 0.8 km/h 4.8 km/h 89% 0 mm 47 W/m2
16:09 15.2 °C 13.9 °C 1029.7 hPa Calm   3.2 km/h 89% 0 mm 42 W/m2
16:14 15.3 °C 14 °C 1029.7 hPa Calm     89% 0 mm 35 W/m2
16:19 15.4 °C 14.1 °C 1029.7 hPa Calm     89% 0 mm 35 W/m2
16:24 15.3 °C 14 °C 1029.3 hPa West 2.1 km/h 4.8 km/h 89% 0 mm 35 W/m2
16:29 15.2 °C 13.9 °C 1029.3 hPa West 2.6 km/h 6.4 km/h 89% 0 mm 33 W/m2
16:34 15.2 °C 13.9 °C 1029.3 hPa West 1 km/h 4.8 km/h 89% 0 mm 37 W/m2
16:39 15.2 °C 13.9 °C 1029.3 hPa West 0.6 km/h 3.2 km/h 89% 0 mm 37 W/m2
16:44 15.3 °C 13.9 °C 1029.3 hPa West 1 km/h 4.8 km/h 89% 0 mm 35 W/m2
16:49 15.2 °C 13.9 °C 1029.3 hPa West 1.3 km/h 6.4 km/h 89% 0 mm 40 W/m2
16:54 15.3 °C 14.1 °C 1029.3 hPa West 1 km/h 4.8 km/h 89% 0 mm 47 W/m2
16:59 15.4 °C 14.1 °C 1029.3 hPa Calm     89% 0 mm 47 W/m2
17:04 15.5 °C 14.2 °C 1029.3 hPa Calm     89% 0 mm 44 W/m2
17:09 15.5 °C 14.2 °C 1029.3 hPa West 3.4 km/h 4.8 km/h 89% 0 mm 42 W/m2
17:14 15.6 °C 14.2 °C 1029.3 hPa West 2.1 km/h 6.4 km/h 89% 0 mm 39 W/m2
17:19 15.6 °C 14.3 °C 1029.3 hPa West 3.1 km/h 6.4 km/h 89% 0 mm 35 W/m2
17:24 15.5 °C 14.2 °C 1029.3 hPa West 2.4 km/h 8 km/h 89% 0 mm 32 W/m2
17:29 15.4 °C 14 °C 1029.3 hPa West 5 km/h 9.7 km/h 88.4% 0 mm 39 W/m2
17:34 15.3 °C 14 °C 1029.3 hPa West 5.1 km/h 9.7 km/h 88.6% 0 mm 39 W/m2
17:39 15.3 °C 14 °C 1029.3 hPa West 3.9 km/h 6.4 km/h 89% 0 mm 32 W/m2
17:44 15.3 °C 14 °C 1029.3 hPa West 4.7 km/h 9.7 km/h 89% 0 mm 26 W/m2
17:49 15.3 °C 14 °C 1029.3 hPa West 4.5 km/h 11.3 km/h 89% 0 mm 23 W/m2
17:54 15.2 °C 13.9 °C 1029.3 hPa West 3.5 km/h 8 km/h 89% 0 mm 18 W/m2
17:59 15.2 °C 13.9 °C 1029.3 hPa West 2.6 km/h 6.4 km/h 89% 0 mm 14 W/m2
18:04 15.2 °C 13.8 °C 1029.3 hPa West 1.3 km/h 6.4 km/h 89% 0 mm 11 W/m2
18:09 15.1 °C 13.8 °C 1029.3 hPa West 0.3 km/h 3.2 km/h 89% 0 mm 9 W/m2
18:14 15.1 °C 13.8 °C 1029.3 hPa West 1 km/h 4.8 km/h 89% 0 mm 5 W/m2
18:18 15.1 °C 13.8 °C 1029.3 hPa West 2.4 km/h 4.8 km/h 89% 0 mm 0 W/m2
18:24 15 °C 13.7 °C 1029.3 hPa West 2.6 km/h 8 km/h 89% 0 mm 0 W/m2
18:29 15 °C 13.7 °C 1029.3 hPa West 2.1 km/h 6.4 km/h 89% 0 mm 0 W/m2
18:34 15 °C 13.7 °C 1029.7 hPa West 2.1 km/h 4.8 km/h 89% 0 mm 0 W/m2
18:39 15 °C 13.7 °C 1029.7 hPa West 2.1 km/h 4.8 km/h 89% 0 mm 0 W/m2
18:44 15 °C 13.7 °C 1029.7 hPa West 0.6 km/h 4.8 km/h 89% 0 mm 0 W/m2
18:49 15 °C 13.7 °C 1029.7 hPa Calm   3.2 km/h 89% 0 mm 0 W/m2
18:54 14.9 °C 13.7 °C 1029.7 hPa Calm     89% 0 mm 0 W/m2
18:59 14.9 °C 13.6 °C 1029.7 hPa West 0.8 km/h 4.8 km/h 89% 0 mm 0 W/m2
19:04 14.9 °C 13.6 °C 1029.7 hPa West 1.3 km/h 4.8 km/h 89% 0 mm 0 W/m2
19:09 14.9 °C 13.7 °C 1029.7 hPa West 1.3 km/h 3.2 km/h 89.2% 0 mm 0 W/m2
19:14 14.9 °C 13.8 °C 1029.7 hPa West 1.3 km/h 4.8 km/h 90% 0 mm 0 W/m2
19:19 14.9 °C 13.8 °C 1029.7 hPa West 2.7 km/h 6.4 km/h 90% 0 mm 0 W/m2
19:24 14.9 °C 13.8 °C 1029.7 hPa West 0.6 km/h 4.8 km/h 90% 0 mm 0 W/m2
19:29 14.8 °C 13.7 °C 1029.7 hPa West 0.8 km/h 3.2 km/h 90% 0 mm 0 W/m2
19:34 14.8 °C 13.7 °C 1029.7 hPa Calm   1.6 km/h 90% 0 mm 0 W/m2
19:39 14.8 °C 13.7 °C 1029.7 hPa Calm   1.6 km/h 90% 0 mm 0 W/m2
19:44 14.8 °C 13.7 °C 1029.7 hPa West 1.9 km/h 4.8 km/h 90% 0 mm 0 W/m2
19:49 14.8 °C 13.7 °C 1029.7 hPa West 1.3 km/h 4.8 km/h 90% 0 mm 0 W/m2
19:54 14.8 °C 13.7 °C 1029.7 hPa West 1.4 km/h 6.4 km/h 90% 0 mm 0 W/m2
19:59 14.8 °C 13.7 °C 1029.7 hPa West 0.6 km/h 6.4 km/h 90% 0 mm 0 W/m2
20:04 14.8 °C 13.7 °C 1029.7 hPa West 1 km/h 6.4 km/h 90% 0 mm 0 W/m2
20:09 14.8 °C 13.7 °C 1029.7 hPa Calm   6.4 km/h 90% 0 mm 0 W/m2
20:14 14.8 °C 13.7 °C 1029.7 hPa West 1.6 km/h 4.8 km/h 90% 0 mm 0 W/m2
20:19 14.8 °C 13.7 °C 1029.7 hPa West 1 km/h 4.8 km/h 90% 0 mm 0 W/m2
20:24 14.8 °C 13.7 °C 1029.7 hPa West 0.3 km/h 3.2 km/h 90% 0 mm 0 W/m2
20:29 14.8 °C 13.7 °C 1029.3 hPa West 0.3 km/h 1.6 km/h 90% 0 mm 0 W/m2
20:34 14.8 °C 13.7 °C 1029.7 hPa West 0.3 km/h 3.2 km/h 90% 0 mm 0 W/m2
20:39 14.8 °C 13.7 °C 1029.7 hPa Calm   1.6 km/h 90% 0 mm 0 W/m2
20:43 14.8 °C 13.7 °C 1029.7 hPa West 1.6 km/h 3.2 km/h 90% 0 mm 0 W/m2
20:49 14.8 °C 13.7 °C 1029.7 hPa Calm   3.2 km/h 90% 0 mm 0 W/m2
20:54 14.8 °C 13.7 °C 1029.7 hPa Calm     90% 0 mm 0 W/m2
20:59 14.8 °C 13.8 °C 1029.7 hPa Calm     90% 0 mm 0 W/m2
21:04 14.9 °C 13.8 °C 1029.7 hPa Calm     90% 0 mm 0 W/m2
21:09 14.8 °C 13.7 °C 1029.7 hPa Calm     90% 0 mm 0 W/m2
21:14 14.8 °C 13.7 °C 1029.7 hPa Calm     90% 0 mm 0 W/m2
21:19 14.8 °C 13.7 °C 1029.7 hPa Calm     90% 0 mm 0 W/m2
21:24 14.8 °C 13.7 °C 1029.7 hPa Calm     90% 0 mm 0 W/m2
21:29 14.8 °C 13.7 °C 1029.7 hPa Calm     90% 0 mm 0 W/m2
21:34 14.8 °C 13.7 °C 1029.7 hPa Calm     90% 0 mm 0 W/m2
21:39 14.8 °C 13.7 °C 1029.7 hPa Calm     90% 0 mm 0 W/m2
21:44 14.8 °C 13.7 °C 1029.3 hPa Calm     90% 0 mm 0 W/m2
21:49 14.8 °C 13.7 °C 1029.3 hPa Calm   1.6 km/h 90% 0 mm 0 W/m2
21:54 14.7 °C 13.6 °C 1029.3 hPa West 0.3 km/h 3.2 km/h 90% 0 mm 0 W/m2
21:59 14.7 °C 13.6 °C 1029.3 hPa West 1.3 km/h 6.4 km/h 90% 0 mm 0 W/m2
22:04 14.7 °C 13.6 °C 1029.3 hPa West 0.6 km/h 4.8 km/h 90% 0 mm 0 W/m2
22:09 14.7 °C 13.6 °C 1029.3 hPa West 1.9 km/h 4.8 km/h 90% 0 mm 0 W/m2
22:14 14.7 °C 13.6 °C 1029.3 hPa West 1.8 km/h 6.4 km/h 90% 0 mm 0 W/m2
22:19 14.7 °C 13.6 °C 1029.3 hPa West 1.3 km/h 3.2 km/h 90% 0 mm 0 W/m2
22:24 14.7 °C 13.6 °C 1029.3 hPa West 3.1 km/h 4.8 km/h 90% 0 mm 0 W/m2
22:29 14.8 °C 13.7 °C 1029.3 hPa West 3.4 km/h 8 km/h 90% 0 mm 0 W/m2
22:34 14.8 °C 13.7 °C 1029.3 hPa West 4.2 km/h 9.7 km/h 90% 0 mm 0 W/m2
22:39 14.7 °C 13.6 °C 1029.3 hPa West 6 km/h 9.7 km/h 90% 0 mm 0 W/m2
22:44 14.7 °C 13.6 °C 1029.3 hPa West 1.4 km/h 8 km/h 90% 0 mm 0 W/m2
22:49 14.7 °C 13.6 °C 1029.3 hPa West 2.7 km/h 8 km/h 90% 0 mm 0 W/m2
22:54 14.7 °C 13.7 °C 1029.3 hPa West 2.7 km/h 8 km/h 90.8% 0 mm 0 W/m2
22:59 14.7 °C 13.7 °C 1029.3 hPa West 1.6 km/h 4.8 km/h 91% 0 mm 0 W/m2
23:04 14.7 °C 13.7 °C 1029.3 hPa West 1 km/h 4.8 km/h 91% 0 mm 0 W/m2
23:09 14.6 °C 13.6 °C 1029.3 hPa West 0.6 km/h 4.8 km/h 91% 0 mm 0 W/m2
23:14 14.6 °C 13.6 °C 1029.3 hPa West 0.6 km/h 3.2 km/h 91% 0 mm 0 W/m2
23:19 14.6 °C 13.6 °C 1029.3 hPa West 0.3 km/h 3.2 km/h 91% 0 mm 0 W/m2
23:24 14.6 °C 13.6 °C 1029.3 hPa West 1 km/h 3.2 km/h 91% 0 mm 0 W/m2
23:29 14.6 °C 13.6 °C 1029.3 hPa Calm   1.6 km/h 91% 0 mm 0 W/m2
23:34 14.6 °C 13.6 °C 1029.3 hPa West 0.3 km/h 1.6 km/h 91% 0 mm 0 W/m2
23:39 14.6 °C 13.6 °C 1029.3 hPa Calm   3.2 km/h 91% 0 mm 0 W/m2
23:44 14.6 °C 13.6 °C 1029.3 hPa Calm     91% 0 mm 0 W/m2
23:49 14.6 °C 13.6 °C 1029 hPa West 1.9 km/h 4.8 km/h 91% 0 mm 0 W/m2
23:54 14.6 °C 13.6 °C 1029 hPa Calm   4.8 km/h 91% 0 mm 0 W/m2
23:59 14.6 °C 13.6 °C 1029 hPa West 0.6 km/h 4.8 km/h 91% 0 mm 0 W/m2
Bath Spa Weather
Compliments of Weather Underground - 2 mb